Main page
Satellite images 15-day forecastsClimateMarine weather Cyclones Lightning AirportsFAQ Newsletter About
Weather : Europe Africa North America South America Asia Australia-Oceania Others
Languages Contact

Bauru, São Paulo, Brazil

latitude: 22-19S, longitude: 049-04W, elevation: 590 m


METAR: SBBU 212300Z 18004KT CAVOK 26/13 Q1018
short-TAF: out of date (56370 hours)
long-TAF: out of date (21714 hours)

Time: 20:56 (23:56 UTC)

Current weather observation

The report was made 56 minutes ago, at 23:00 UTC  
Wind 04 kt from the South
Temperature 26°C
Humidity 45%
Pressure 1018 hPa
Visibility 10 km or more
no clouds below 1500 m and no cumulonimbus

Change units
The information on this site is subject to a disclaimer
Weather : Europe Africa North America South America Asia Australia-Oceania Others
Satellite images 15-day forecastsClimateMarine weather Cyclones Lightning AirportsFAQ Languages Contact Newsletter About